createdAt,value
2023-03-24T00:00:31.680Z,13.87
2023-03-24T00:03:04.425Z,13.85
2023-03-24T00:05:34.668Z,13.88
2023-03-24T00:08:05.095Z,13.89
2023-03-24T00:10:36.954Z,13.94
2023-03-24T00:29:59.595Z,13.76
2023-03-24T00:32:30.602Z,13.75
2023-03-24T00:35:00.632Z,13.72
2023-03-24T00:37:30.693Z,13.69
2023-03-24T00:40:01.127Z,13.65
2023-03-24T00:42:31.372Z,13.63
2023-03-24T00:45:04.042Z,13.64
2023-03-24T00:47:37.100Z,13.63
2023-03-24T00:50:07.597Z,13.65
2023-03-24T00:52:44.339Z,13.64
2023-03-24T00:55:16.797Z,13.65
2023-03-24T00:57:50.768Z,13.63
2023-03-24T01:00:26.346Z,13.63
2023-03-24T01:02:58.690Z,13.63
2023-03-24T01:05:30.757Z,13.62
2023-03-24T01:08:03.435Z,13.60
2023-03-24T01:10:35.787Z,13.59
2023-03-24T01:13:05.959Z,13.58
2023-03-24T01:15:39.435Z,13.59
2023-03-24T01:18:09.959Z,13.58
2023-03-24T01:20:40.908Z,13.59
2023-03-24T01:23:11.562Z,13.57
2023-03-24T01:25:42.788Z,13.57
2023-03-24T01:28:12.743Z,13.55
2023-03-24T01:30:45.983Z,13.55
2023-03-24T01:33:16.617Z,13.57
2023-03-24T01:35:46.933Z,13.56
2023-03-24T01:38:18.273Z,13.56
2023-03-24T02:58:09.022Z,13.80
2023-03-24T03:00:45.255Z,13.83
2023-03-24T03:03:19.314Z,13.85
2023-03-24T03:05:54.214Z,13.88
2023-03-24T03:08:27.029Z,13.86
2023-03-24T03:11:00.255Z,13.88
2023-03-24T03:13:37.379Z,13.88
2023-03-24T03:16:12.393Z,13.88
2023-03-24T03:18:50.230Z,13.90
2023-03-24T03:21:24.489Z,13.93
2023-03-24T03:23:58.214Z,13.92
2023-03-24T03:26:32.955Z,13.91
2023-03-24T03:29:11.776Z,13.92
2023-03-24T03:31:45.726Z,13.96
2023-03-24T03:34:24.052Z,13.95
2023-03-24T03:37:00.842Z,13.97
2023-03-24T03:39:33.582Z,13.99
2023-03-24T03:42:03.777Z,14.05
2023-03-24T03:44:37.323Z,14.09
2023-03-24T03:47:07.456Z,14.13
2023-03-24T03:49:37.391Z,14.15
2023-03-24T03:52:08.351Z,14.20
2023-03-24T03:54:40.616Z,14.19
2023-03-24T03:57:10.963Z,14.21
2023-03-24T03:59:43.753Z,14.22
2023-03-24T04:02:30.709Z,14.22
2023-03-24T04:05:29.602Z,14.21
2023-03-24T04:08:34.458Z,14.20
2023-03-24T04:11:27.952Z,14.23
2023-03-24T04:14:06.949Z,14.25
2023-03-24T04:16:50.253Z,14.23
2023-03-24T04:19:37.025Z,14.19
2023-03-24T04:22:25.240Z,14.18
2023-03-24T04:25:00.388Z,14.18
2023-03-24T04:27:38.658Z,14.14
2023-03-24T04:30:17.576Z,14.15
2023-03-24T04:32:55.268Z,14.14
2023-03-24T04:35:34.454Z,14.11
2023-03-24T04:38:08.999Z,14.10
2023-03-24T04:40:42.291Z,14.09
2023-03-24T04:43:17.649Z,14.10
2023-03-24T04:45:50.429Z,14.04
2023-03-24T04:48:23.450Z,14.07
2023-03-24T04:50:57.882Z,14.07
2023-03-24T04:53:27.907Z,14.09
2023-03-24T04:56:06.768Z,14.05
2023-03-24T04:58:36.964Z,14.09
2023-03-24T05:01:09.273Z,14.08
2023-03-24T05:03:42.353Z,14.05
2023-03-24T05:06:13.418Z,14.00
2023-03-24T05:08:43.481Z,13.86
2023-03-24T05:11:13.317Z,13.93
2023-03-24T05:13:44.658Z,13.95
2023-03-24T05:16:14.599Z,13.93
2023-03-24T05:18:47.190Z,13.92
2023-03-24T05:21:17.067Z,13.92
2023-03-24T05:23:46.893Z,13.96
2023-03-24T05:26:16.862Z,13.95
2023-03-24T05:28:46.903Z,13.89
2023-03-24T05:31:16.856Z,13.85
2023-03-24T05:33:49.450Z,13.80
2023-03-24T05:36:19.711Z,13.75
2023-03-24T05:38:49.599Z,13.67
2023-03-24T05:41:19.568Z,13.59
2023-03-24T05:43:49.415Z,13.54
2023-03-24T05:46:19.340Z,13.56
2023-03-24T05:48:51.951Z,13.55
2023-03-24T05:51:21.770Z,13.55
2023-03-24T05:53:52.513Z,13.50
2023-03-24T05:56:22.354Z,13.45
2023-03-24T05:58:52.681Z,13.29
2023-03-24T06:01:24.946Z,13.24
2023-03-24T06:03:57.676Z,13.17
2023-03-24T06:06:28.916Z,13.16
2023-03-24T06:08:58.821Z,13.13
2023-03-24T06:11:28.726Z,13.08
2023-03-24T06:14:00.640Z,12.97
2023-03-24T06:16:34.143Z,12.91
2023-03-24T06:19:06.955Z,12.87
2023-03-24T06:21:37.280Z,12.86
2023-03-24T06:24:07.745Z,12.84
2023-03-24T06:26:37.626Z,12.76
2023-03-24T06:29:07.473Z,12.76
2023-03-24T06:31:37.663Z,12.74
2023-03-24T06:34:10.229Z,12.75
2023-03-24T06:36:40.882Z,12.68
2023-03-24T06:39:10.932Z,12.74
2023-03-24T06:41:40.833Z,12.79
2023-03-24T06:44:10.956Z,12.78
2023-03-24T06:46:40.875Z,12.78
2023-03-24T06:49:13.428Z,12.76
2023-03-24T06:51:43.286Z,12.83
2023-03-24T06:54:13.233Z,12.98
2023-03-24T06:56:43.096Z,13.16
2023-03-24T06:59:13.359Z,13.29
2023-03-24T07:01:43.384Z,13.43
2023-03-24T07:04:15.905Z,13.57
2023-03-24T07:07:00.888Z,13.71
2023-03-24T07:09:35.661Z,13.75
2023-03-24T07:12:05.750Z,13.71
2023-03-24T07:14:35.857Z,13.80
2023-03-24T07:17:05.814Z,13.92
2023-03-24T07:19:38.286Z,14.08
2023-03-24T07:22:08.532Z,14.22
2023-03-24T07:24:38.531Z,14.36
2023-03-24T07:27:09.375Z,14.36
2023-03-24T07:29:39.306Z,14.51
2023-03-24T07:32:09.882Z,14.57
2023-03-24T07:34:44.036Z,14.77
2023-03-24T07:37:13.978Z,14.88
2023-03-24T07:39:43.938Z,14.91
2023-03-24T07:42:13.798Z,15.04
2023-03-24T07:44:44.010Z,15.19
2023-03-24T07:47:14.278Z,15.39
2023-03-24T07:49:47.067Z,15.49
2023-03-24T07:52:17.082Z,15.72
2023-03-24T07:54:46.954Z,15.92
2023-03-24T07:57:17.014Z,15.91
2023-03-24T07:59:46.979Z,16.01
2023-03-24T08:02:20.664Z,16.10
2023-03-24T08:04:54.009Z,16.08
2023-03-24T08:07:25.009Z,16.06
2023-03-24T08:09:54.866Z,16.20
2023-03-24T08:12:24.815Z,16.36
2023-03-24T08:14:57.573Z,16.43
2023-03-24T08:17:27.718Z,16.39
2023-03-24T08:20:01.592Z,16.40
2023-03-24T08:22:32.360Z,16.36
2023-03-24T08:25:02.276Z,16.09
2023-03-24T08:27:32.130Z,15.80
2023-03-24T08:30:01.954Z,15.66
2023-03-24T08:32:32.036Z,15.66
2023-03-24T08:35:05.343Z,15.76
2023-03-24T08:37:35.649Z,15.93
2023-03-24T08:40:12.339Z,16.00
2023-03-24T08:42:42.833Z,16.15
2023-03-24T08:45:15.381Z,16.33
2023-03-24T08:47:45.363Z,16.38
2023-03-24T08:50:18.136Z,16.43
2023-03-24T08:52:48.870Z,16.60
2023-03-24T08:55:19.726Z,16.60
2023-03-24T08:57:50.107Z,16.65
2023-03-24T09:00:22.909Z,16.81
2023-03-24T09:02:54.832Z,17.02
2023-03-24T09:05:43.522Z,17.06
2023-03-24T09:08:15.446Z,16.82
2023-03-24T09:10:48.779Z,16.87
2023-03-24T09:13:19.080Z,16.99
2023-03-24T09:15:50.862Z,16.86
2023-03-24T09:18:21.883Z,16.63
2023-03-24T09:20:54.890Z,16.61
2023-03-24T09:23:25.945Z,16.50
2023-03-24T09:25:56.826Z,16.46
2023-03-24T09:28:28.062Z,16.42
2023-03-24T09:31:01.049Z,16.41
2023-03-24T09:33:34.997Z,16.38
2023-03-24T09:36:08.644Z,16.32
2023-03-24T09:38:38.808Z,16.33
2023-03-24T09:41:20.409Z,16.11
2023-03-24T09:43:55.659Z,16.11
2023-03-24T09:46:31.837Z,16.11
2023-03-24T09:49:02.521Z,16.11
2023-03-24T09:51:39.780Z,16.15
2023-03-24T09:54:17.957Z,16.01
2023-03-24T09:56:51.737Z,16.04
2023-03-24T09:59:24.688Z,16.01
2023-03-24T10:02:07.042Z,16.02
2023-03-24T10:04:37.149Z,16.12
2023-03-24T10:07:16.655Z,16.21
2023-03-24T10:09:50.497Z,16.27
2023-03-24T10:12:31.450Z,16.45
2023-03-24T10:15:24.342Z,16.48
2023-03-24T10:18:18.106Z,16.40
2023-03-24T10:20:54.947Z,16.14
2023-03-24T10:23:37.520Z,16.05
2023-03-24T10:26:19.004Z,16.03
2023-03-24T10:28:54.739Z,16.10
2023-03-24T10:31:32.085Z,16.15
2023-03-24T10:34:03.226Z,16.28
2023-03-24T10:36:33.917Z,16.49
2023-03-24T10:39:18.601Z,16.81
2023-03-24T10:41:52.556Z,16.97
2023-03-24T10:44:23.526Z,17.02
2023-03-24T10:46:57.437Z,17.04
2023-03-24T10:49:27.607Z,17.10
2023-03-24T10:52:04.433Z,17.18
2023-03-24T10:54:37.165Z,17.25
2023-03-24T10:57:18.332Z,17.17
2023-03-24T10:59:57.175Z,17.05
2023-03-24T11:02:29.206Z,17.09
2023-03-24T11:05:02.610Z,17.15
2023-03-24T11:07:39.055Z,17.15
2023-03-24T11:10:19.271Z,17.08
2023-03-24T11:13:05.257Z,17.34
2023-03-24T11:15:37.484Z,17.48
2023-03-24T11:18:17.363Z,17.53
2023-03-24T11:20:48.922Z,17.48
2023-03-24T11:23:23.042Z,17.39
2023-03-24T11:26:07.064Z,17.37
2023-03-24T11:28:41.644Z,17.33
2023-03-24T11:31:19.398Z,17.48
2023-03-24T11:33:57.017Z,17.56
2023-03-24T11:36:47.291Z,17.50
2023-03-24T11:39:24.228Z,17.48
2023-03-24T11:42:05.376Z,17.31
2023-03-24T11:44:46.684Z,17.28
2023-03-24T11:47:24.577Z,17.23
2023-03-24T11:50:03.985Z,17.16
2023-03-24T11:52:39.789Z,17.18
2023-03-24T11:55:18.345Z,17.23
2023-03-24T11:57:59.566Z,17.28
2023-03-24T12:00:35.128Z,17.45
2023-03-24T12:03:40.449Z,17.39
2023-03-24T12:06:28.502Z,17.42
2023-03-24T12:09:11.717Z,17.44
2023-03-24T12:11:56.573Z,17.33
2023-03-24T12:14:41.251Z,17.38
2023-03-24T12:17:17.010Z,17.42
2023-03-24T12:20:16.229Z,17.34
2023-03-24T12:22:58.097Z,17.43
2023-03-24T12:25:39.622Z,17.43
2023-03-24T12:28:32.633Z,17.38
2023-03-24T12:31:17.467Z,17.40
2023-03-24T12:33:56.377Z,17.46
2023-03-24T12:36:39.331Z,17.49
2023-03-24T12:39:13.722Z,17.57
2023-03-24T12:41:57.339Z,17.67
2023-03-24T12:44:43.282Z,17.56
2023-03-24T12:47:28.185Z,17.52
2023-03-24T12:50:21.054Z,17.38
2023-03-24T12:53:12.017Z,17.31
2023-03-24T12:55:47.940Z,17.19
2023-03-24T12:58:25.616Z,17.25
2023-03-24T13:01:04.935Z,17.41
2023-03-24T13:03:42.953Z,17.57
2023-03-24T13:06:23.010Z,17.51
2023-03-24T13:09:11.017Z,17.47
2023-03-24T13:11:51.091Z,17.37
2023-03-24T13:14:28.390Z,17.26
2023-03-24T13:17:06.462Z,17.20
2023-03-24T13:19:40.883Z,17.02
2023-03-24T13:22:19.018Z,16.97
2023-03-24T13:24:50.360Z,17.02
2023-03-24T13:27:26.599Z,16.95
2023-03-24T13:30:15.930Z,16.89
2023-03-24T13:32:50.724Z,16.76
2023-03-24T13:35:34.893Z,16.57
2023-03-24T13:38:10.588Z,16.69
2023-03-24T13:40:42.931Z,16.85
2023-03-24T13:43:16.606Z,16.86
2023-03-24T13:45:51.867Z,16.95
2023-03-24T13:48:30.563Z,16.98
2023-03-24T13:51:06.671Z,17.17
2023-03-24T13:53:41.516Z,17.19
2023-03-24T13:56:25.732Z,17.21
2023-03-24T13:59:25.671Z,17.09
2023-03-24T14:02:20.890Z,17.03
2023-03-24T14:04:52.382Z,17.06
2023-03-24T14:07:50.648Z,16.89
2023-03-24T14:10:46.574Z,16.54
2023-03-24T14:13:36.051Z,16.33
2023-03-24T14:16:38.636Z,16.28
2023-03-24T14:19:30.607Z,16.29
2023-03-24T14:22:07.324Z,16.47
2023-03-24T14:24:44.314Z,16.65
2023-03-24T14:27:36.448Z,16.74
2023-03-24T14:30:16.484Z,16.87
2023-03-24T14:32:49.252Z,16.98
2023-03-24T14:35:28.889Z,16.90
2023-03-24T14:38:01.748Z,16.82
2023-03-24T14:40:40.286Z,16.67
2023-03-24T14:43:21.446Z,16.52
2023-03-24T14:46:00.272Z,16.44
2023-03-24T14:48:40.524Z,16.29
2023-03-24T14:51:36.902Z,16.39
2023-03-24T14:54:09.879Z,16.54
2023-03-24T14:56:45.987Z,16.53
2023-03-24T14:59:29.705Z,16.51
2023-03-24T15:02:07.434Z,16.47
2023-03-24T15:04:39.642Z,16.42
2023-03-24T15:07:10.483Z,16.39
2023-03-24T15:09:41.627Z,16.30
2023-03-24T15:12:14.401Z,16.25
2023-03-24T15:14:46.641Z,16.24
2023-03-24T15:17:24.635Z,16.21
2023-03-24T15:19:55.851Z,16.24
2023-03-24T15:22:26.191Z,16.20
2023-03-24T15:24:56.365Z,16.19
2023-03-24T15:27:33.941Z,16.10
2023-03-24T15:30:05.080Z,16.08
2023-03-24T15:32:39.414Z,16.06
2023-03-24T15:35:15.768Z,16.05
2023-03-24T15:37:48.510Z,16.00
2023-03-24T15:40:34.477Z,15.91
2023-03-24T15:43:09.790Z,15.93
2023-03-24T15:45:51.161Z,15.81
2023-03-24T15:48:31.088Z,15.75
2023-03-24T15:51:03.829Z,15.66
2023-03-24T15:53:42.270Z,15.60
2023-03-24T15:56:21.107Z,15.40
2023-03-24T15:58:57.153Z,15.30
2023-03-24T16:01:36.618Z,15.23
2023-03-24T16:04:09.122Z,15.16
2023-03-24T16:06:40.082Z,15.17
2023-03-24T16:09:14.594Z,15.17
2023-03-24T16:11:44.950Z,15.16
2023-03-24T16:14:25.587Z,15.02
2023-03-24T16:16:58.216Z,15.05
2023-03-24T16:19:31.528Z,15.06
2023-03-24T16:22:02.625Z,15.11
2023-03-24T16:24:33.996Z,15.12
2023-03-24T16:27:04.100Z,15.07
2023-03-24T16:29:37.025Z,15.09
2023-03-24T16:32:10.107Z,15.10
2023-03-24T16:34:40.031Z,15.17
2023-03-24T16:37:10.852Z,15.16
2023-03-24T16:39:40.839Z,15.14
2023-03-24T16:42:13.119Z,15.09
2023-03-24T16:44:46.588Z,15.05
2023-03-24T16:47:16.736Z,15.02
2023-03-24T16:49:46.598Z,14.94
2023-03-24T16:52:17.937Z,14.96
2023-03-24T16:54:50.500Z,14.90
2023-03-24T16:57:21.845Z,14.89
2023-03-24T16:59:54.510Z,14.85
2023-03-24T17:02:27.046Z,14.73
2023-03-24T17:04:57.354Z,14.73
2023-03-24T17:07:27.789Z,14.68
2023-03-24T17:09:57.719Z,14.59
2023-03-24T17:12:27.899Z,14.62
2023-03-24T17:15:00.471Z,14.57
2023-03-24T17:17:30.462Z,14.56
2023-03-24T17:20:01.234Z,14.51
2023-03-24T17:22:32.558Z,14.43
2023-03-24T17:25:02.496Z,14.46
2023-03-24T17:27:32.433Z,14.51
2023-03-24T17:30:05.294Z,14.47
2023-03-24T17:32:36.803Z,14.45
2023-03-24T17:35:07.458Z,14.43
2023-03-24T17:37:37.455Z,14.29
2023-03-24T17:40:10.756Z,14.23
2023-03-24T17:42:43.314Z,14.21
2023-03-24T17:45:20.460Z,14.19
2023-03-24T17:47:50.430Z,14.16
2023-03-24T17:50:20.888Z,14.11
2023-03-24T17:52:51.456Z,14.00
2023-03-24T17:55:21.740Z,13.93
2023-03-24T17:57:51.914Z,13.87
2023-03-24T18:00:25.426Z,13.82
2023-03-24T18:02:56.817Z,13.71
2023-03-24T18:05:28.112Z,13.71
2023-03-24T18:07:58.109Z,13.67
2023-03-24T18:10:27.930Z,13.62
2023-03-24T18:12:57.835Z,13.56
2023-03-24T18:15:30.699Z,13.54
2023-03-24T18:18:01.017Z,13.49
2023-03-24T18:20:32.289Z,13.42
2023-03-24T18:23:02.099Z,13.41
2023-03-24T18:25:32.311Z,13.36
2023-03-24T18:28:02.773Z,13.33
2023-03-24T18:30:35.533Z,13.28
2023-03-24T18:33:05.596Z,13.24
2023-03-24T18:35:35.811Z,13.21
2023-03-24T18:38:05.908Z,13.17
2023-03-24T18:40:38.570Z,13.09
2023-03-24T18:43:08.703Z,13.09
2023-03-24T18:45:41.320Z,13.00
2023-03-24T18:48:15.612Z,13.01
2023-03-24T18:50:48.750Z,13.04
2023-03-24T18:53:18.783Z,13.04
2023-03-24T18:55:50.443Z,13.02
2023-03-24T18:58:21.521Z,13.01
2023-03-24T19:00:55.670Z,12.98
2023-03-24T19:03:27.323Z,12.91
2023-03-24T19:05:59.224Z,12.90
2023-03-24T19:08:29.093Z,12.86
2023-03-24T19:11:00.305Z,12.91
2023-03-24T19:13:30.294Z,12.91
2023-03-24T19:16:02.886Z,12.87
2023-03-24T19:18:32.994Z,12.83
2023-03-24T19:21:02.953Z,12.85
2023-03-24T19:23:33.670Z,12.79
2023-03-24T19:26:03.791Z,12.77
2023-03-24T19:28:37.422Z,12.73
2023-03-24T19:31:13.814Z,12.77
2023-03-24T19:33:44.422Z,12.78
2023-03-24T19:36:15.841Z,12.79
2023-03-24T19:38:46.259Z,12.82
2023-03-24T19:41:17.785Z,12.72
2023-03-24T19:43:47.754Z,12.74
2023-03-24T19:46:21.273Z,12.68
2023-03-24T19:48:51.319Z,12.68
2023-03-24T19:51:21.849Z,12.69
2023-03-24T19:53:51.720Z,12.67
2023-03-24T19:56:22.287Z,12.65
2023-03-24T19:58:52.538Z,12.66
2023-03-24T20:01:25.283Z,12.66
2023-03-24T20:03:55.463Z,12.67
2023-03-24T20:06:25.671Z,12.71
2023-03-24T20:08:58.104Z,12.73
2023-03-24T20:11:27.962Z,12.75
2023-03-24T20:13:57.973Z,12.78
2023-03-24T20:16:30.420Z,12.80
2023-03-24T20:19:00.286Z,12.80
2023-03-24T20:21:30.535Z,12.83
2023-03-24T20:24:00.786Z,12.82
2023-03-24T20:26:31.357Z,12.83
2023-03-24T20:29:01.281Z,12.83
2023-03-24T20:31:34.166Z,12.81
2023-03-24T20:34:04.133Z,12.78
2023-03-24T20:36:34.162Z,12.75
2023-03-24T20:39:05.924Z,12.71
2023-03-24T20:41:36.506Z,12.74
2023-03-24T20:44:06.557Z,12.69
2023-03-24T20:46:40.209Z,12.63
2023-03-24T20:49:14.399Z,12.64
2023-03-24T20:51:44.275Z,12.66
2023-03-24T20:54:14.859Z,12.66
2023-03-24T20:56:44.921Z,12.61
2023-03-24T20:59:14.867Z,12.60
2023-03-24T21:01:49.030Z,12.57
2023-03-24T21:04:20.525Z,12.58
2023-03-24T21:06:50.406Z,12.54
2023-03-24T21:09:22.496Z,12.53
2023-03-24T21:11:52.444Z,12.47
2023-03-24T21:14:22.680Z,12.44
2023-03-24T21:16:55.303Z,12.36
2023-03-24T21:19:26.186Z,12.32
2023-03-24T21:21:56.392Z,12.29
2023-03-24T21:24:26.673Z,12.24
2023-03-24T21:26:57.395Z,12.25
2023-03-24T21:29:27.405Z,12.21
2023-03-24T21:31:59.893Z,12.22
2023-03-24T21:34:29.737Z,12.19
2023-03-24T21:37:01.820Z,12.17
2023-03-24T21:39:33.827Z,12.15
2023-03-24T21:42:06.792Z,12.12
2023-03-24T21:44:39.911Z,12.03
2023-03-24T21:47:15.106Z,12.04
2023-03-24T21:49:49.407Z,12.03
2023-03-24T21:52:19.628Z,12.02
2023-03-24T21:54:49.527Z,12.00
2023-03-24T21:57:20.246Z,11.98
2023-03-24T21:59:50.154Z,11.92
2023-03-24T22:02:25.291Z,11.91
2023-03-24T22:04:55.197Z,11.87
2023-03-24T22:07:25.444Z,11.84
2023-03-24T22:09:55.252Z,11.84
2023-03-24T22:12:25.330Z,11.86
2023-03-24T22:14:55.344Z,11.85
2023-03-24T22:17:28.205Z,11.84
2023-03-24T22:19:58.081Z,11.82
2023-03-24T22:22:27.946Z,11.82
2023-03-24T22:24:58.084Z,11.79
2023-03-24T22:27:28.085Z,11.84
2023-03-24T22:29:57.917Z,11.85
2023-03-24T22:32:30.887Z,11.85
2023-03-24T22:35:01.844Z,11.83
2023-03-24T22:37:31.851Z,11.84
2023-03-24T22:40:01.814Z,11.82
2023-03-24T22:42:31.969Z,11.80
2023-03-24T22:45:02.136Z,11.80
2023-03-24T22:47:37.084Z,11.77
2023-03-24T22:50:09.728Z,11.70
2023-03-24T22:52:39.672Z,11.69
2023-03-24T22:55:10.521Z,11.64
2023-03-24T22:57:40.500Z,11.64
2023-03-24T23:00:12.162Z,11.67
2023-03-24T23:02:44.870Z,11.68
2023-03-24T23:05:15.507Z,11.67
2023-03-24T23:07:45.606Z,11.70
2023-03-24T23:10:16.071Z,11.72
2023-03-24T23:12:46.576Z,11.73
2023-03-24T23:15:18.036Z,11.76
2023-03-24T23:17:50.687Z,11.77
2023-03-24T23:20:21.215Z,11.81
2023-03-24T23:22:51.380Z,11.79
2023-03-24T23:25:21.926Z,11.78
2023-03-24T23:27:51.781Z,11.77
2023-03-24T23:30:21.637Z,11.74
2023-03-24T23:32:54.165Z,11.78
2023-03-24T23:35:24.090Z,11.77
2023-03-24T23:37:53.935Z,11.77
2023-03-24T23:40:24.420Z,11.78
2023-03-24T23:42:54.444Z,11.76
2023-03-24T23:45:24.327Z,11.78
2023-03-24T23:47:57.048Z,11.68
2023-03-24T23:50:28.389Z,11.70
2023-03-24T23:52:59.355Z,11.72
2023-03-24T23:55:29.959Z,11.68
2023-03-24T23:58:00.176Z,11.65
